Time;durP1;ratioP1;P1;durP2;ratioP2;P2;SDS_P1;SDS_P2;PMS_P1;PMS_P2;Temp;Humidity;BMP_temperature;BMP_pressure;BME280_temperature;BME280_humidity;BME280_pressure;Samples;Min_cycle;Max_cycle;Signal;HPM_P1;HPM_P2
2022/09/01 07:10:32;;;;;;;24.83;16.98;;;;;;;17.02;81.06;96794.59;2090444;28;21138;-63
2022/09/01 07:11:54;;;;;;;26.38;16.05;;;;;;;17.24;80.41;96817.72;2085339;28;20207;-63
2022/09/01 07:13:24;;;;;;;27.70;17.85;;;;;;;16.73;81.88;96823.75;2077991;28;20295;-63
2022/09/01 07:14:26;;;;;;;21.77;15.80;;;;;;;16.70;83.75;96822.16;2077355;28;20207;-64
2022/09/01 07:15:30;;;;;;;24.17;16.08;;;;;;;17.21;80.14;96824.03;2079176;28;20196;-63
2022/09/01 07:16:56;;;;;;;23.92;17.00;;;;;;;17.73;79.42;96818.72;2076318;28;20215;-64
2022/09/01 07:51:17;;;;;;;33.20;16.10;;;;;;;16.35;82.99;96843.75;2116873;27;21058;-63
2022/09/01 07:52:48;;;;;;;31.35;20.83;;;;;;;16.14;84.05;96844.22;2101065;28;20220;-62
2022/09/01 07:53:49;;;;;;;28.35;17.83;;;;;;;16.22;83.86;96843.72;2094573;28;20196;-63
2022/09/01 07:54:51;;;;;;;25.50;17.48;;;;;;;16.52;82.74;96844.47;2095476;28;20196;-63
2022/09/01 07:55:55;;;;;;;23.88;16.85;;;;;;;16.31;82.46;96853.66;2095042;28;20322;-63
2022/09/01 07:57:00;;;;;;;28.67;18.42;;;;;;;16.48;82.19;96847.31;2094844;28;20200;-63
2022/09/01 07:58:02;;;;;;;21.88;16.55;;;;;;;16.73;81.78;96848.31;2095482;28;20195;-62
2022/09/01 07:59:03;;;;;;;21.50;15.90;;;;;;;17.00;80.91;96850.09;2094800;28;20199;-63
2022/09/01 08:00:05;;;;;;;29.55;18.08;;;;;;;17.07;79.95;96837.34;2087243;28;20200;-62
2022/09/01 08:10:27;;;;;;;20.50;13.77;;;;;;;20.57;68.34;96859.94;2086447;28;20572;-65
2022/09/01 08:18:23;;;;;;;14.90;10.68;;;;;;;20.65;67.15;96861.97;2082769;28;20220;-65
2022/09/01 08:19:25;;;;;;;26.13;11.45;;;;;;;20.97;65.82;96856.66;2078982;28;20204;-65
2022/09/01 08:20:27;;;;;;;12.80;9.95;;;;;;;20.94;65.32;96859.56;2080023;28;20555;-65
2022/09/01 08:21:28;;;;;;;15.25;10.15;;;;;;;20.78;65.49;96838.75;2084795;28;20654;-66
2022/09/01 08:22:30;;;;;;;14.52;9.20;;;;;;;21.07;65.25;96859.38;2084500;28;20576;-66
2022/09/01 08:23:37;;;;;;;13.23;8.93;;;;;;;21.14;64.60;96857.91;2084782;28;20204;-65
2022/09/01 08:24:39;;;;;;;16.90;9.45;;;;;;;20.64;64.72;96866.41;2084912;28;20204;-66
2022/09/01 08:25:42;;;;;;;14.38;10.05;;;;;;;19.83;67.86;96863.19;2079459;28;20196;-65
2022/09/01 08:26:44;;;;;;;22.95;10.60;;;;;;;20.02;67.76;96862.56;2080772;28;20639;-65
2022/09/01 08:27:46;;;;;;;13.50;8.10;;;;;;;20.25;67.42;96858.06;2081557;28;20225;-66
2022/09/01 08:28:48;;;;;;;15.50;10.15;;;;;;;20.23;67.04;96862.69;2082942;28;20306;-65
2022/09/01 08:29:55;;;;;;;13.57;9.02;;;;;;;20.17;66.50;96850.75;2080294;28;20224;-65
2022/09/01 08:30:58;;;;;;;14.85;9.30;;;;;;;19.88;67.17;96861.00;2081984;28;20648;-66
2022/09/01 08:53:06;;;;;;;13.18;9.13;;;;;;;19.18;70.76;96873.44;2114564;27;20472;-66
2022/09/01 08:54:24;;;;;;;18.40;10.77;;;;;;;19.05;69.67;96868.25;2071058;28;1223242;-66
2022/09/01 09:08:54;;;;;;;20.05;11.90;;;;;;;18.50;72.77;96868.72;2103908;27;20545;-65
2022/09/01 09:10:14;;;;;;;16.27;10.50;;;;;;;19.00;71.51;96873.03;2095363;28;20245;-67
2022/09/01 09:11:33;;;;;;;18.33;11.88;;;;;;;19.14;70.17;96870.19;2094602;28;20199;-67
2022/09/01 09:12:58;;;;;;;18.73;10.90;;;;;;;19.21;70.30;96873.19;2081637;28;20221;-65
2022/09/01 09:14:12;;;;;;;29.45;10.38;;;;;;;19.30;70.02;96883.09;2078377;28;20201;-65
2022/09/01 09:15:24;;;;;;;25.60;10.60;;;;;;;18.70;69.12;96854.03;2079798;28;20307;-65
2022/09/01 09:16:30;;;;;;;18.38;9.00;;;;;;;18.62;70.00;96874.91;2083921;28;20212;-65
2022/09/01 09:33:37;;;;;;;23.83;10.45;;;;;;;17.85;72.56;96864.53;2092998;27;20563;-65
2022/09/01 09:34:52;;;;;;;24.95;10.00;;;;;;;18.54;71.50;96878.09;2082617;28;20291;-68
2022/09/01 09:35:56;;;;;;;20.63;11.48;;;;;;;18.26;71.43;96871.34;2083970;28;20661;-67
2022/09/01 09:37:19;;;;;;;29.90;10.85;;;;;;;18.88;70.65;96874.75;2081692;28;20659;-67
2022/09/01 09:38:31;;;;;;;14.70;9.15;;;;;;;18.69;69.07;96847.03;2074278;28;20205;-67
2022/09/01 09:39:34;;;;;;;18.33;10.20;;;;;;;18.38;70.92;96867.78;2074723;28;20197;-67
2022/09/01 09:40:35;;;;;;;16.45;10.32;;;;;;;18.66;70.57;96870.22;2075999;28;20193;-67
2022/09/01 09:42:08;;;;;;;18.10;10.20;;;;;;;18.58;69.88;96871.63;2075365;28;20231;-67
2022/09/01 09:43:14;;;;;;;19.10;9.15;;;;;;;18.69;70.30;96864.69;2075970;28;20197;-67
2022/09/01 09:44:25;;;;;;;13.07;8.90;;;;;;;18.43;70.37;96875.41;2077017;28;20208;-67
2022/09/01 09:45:33;;;;;;;16.73;8.88;;;;;;;19.13;69.19;96873.78;2073968;28;20203;-67
2022/09/01 09:46:37;;;;;;;14.88;9.77;;;;;;;19.68;67.85;96867.84;2066649;28;20565;-67
2022/09/01 09:47:44;;;;;;;24.73;10.43;;;;;;;18.97;68.09;96866.19;2069047;28;20245;-67
2022/09/01 09:48:46;;;;;;;13.43;9.38;;;;;;;18.84;68.65;96868.00;2073695;28;20196;-64
2022/09/01 09:49:48;;;;;;;11.02;8.13;;;;;;;19.48;67.84;96874.72;2073724;28;20198;-65
2022/09/01 09:50:49;;;;;;;11.32;8.30;;;;;;;19.46;66.06;96850.97;2074134;28;20279;-64
2022/09/01 09:51:55;;;;;;;14.32;7.32;;;;;;;19.41;65.62;96869.03;2072386;28;20197;-64
2022/09/01 10:04:51;;;;;;;16.92;6.82;;;;;;;19.92;64.61;96865.09;2073347;28;20640;-62
2022/09/01 10:05:56;;;;;;;11.63;6.82;;;;;;;19.99;64.15;96861.00;2056989;28;20347;-62
2022/09/01 10:07:22;;;;;;;18.55;7.80;;;;;;;19.97;65.48;96862.97;2075330;28;20276;-63
2022/09/01 10:08:26;;;;;;;11.80;7.10;;;;;;;19.63;64.19;96868.22;2076342;28;20201;-62
2022/09/01 10:09:28;;;;;;;15.30;8.25;;;;;;;19.51;65.48;96863.88;2070659;28;20637;-62
2022/09/01 10:10:41;;;;;;;13.15;7.50;;;;;;;19.89;65.50;96868.00;2070984;28;20202;-63
2022/09/01 10:11:47;;;;;;;10.38;5.78;;;;;;;20.96;63.03;96865.59;2071012;28;20645;-63
2022/09/01 10:12:54;;;;;;;9.52;6.90;;;;;;;21.96;60.20;96860.72;2075447;28;20243;-62
2022/09/01 10:13:56;;;;;;;11.35;7.05;;;;;;;22.53;57.89;96868.19;2070740;28;20197;-62
2022/09/01 10:15:08;;;;;;;17.63;6.07;;;;;;;21.77;58.42;96862.31;2071257;28;20205;-62
2022/09/01 10:16:23;;;;;;;8.48;6.20;;;;;;;22.01;59.19;96853.19;2071066;28;20255;-65
2022/09/01 10:17:35;;;;;;;10.82;6.53;;;;;;;22.27;57.10;96858.00;2071234;28;20224;-65
2022/09/01 10:18:43;;;;;;;11.88;5.07;;;;;;;21.40;58.86;96860.16;2072084;28;20197;-65
2022/09/01 10:19:54;;;;;;;10.63;5.80;;;;;;;21.81;58.16;96862.91;2073182;28;20200;-65
2022/09/01 10:21:15;;;;;;;8.25;5.28;;;;;;;21.74;57.88;96843.13;2072569;28;20197;-65
2022/09/01 10:22:17;;;;;;;8.77;5.50;;;;;;;22.57;56.54;96849.13;2073397;28;20213;-65
2022/09/01 10:23:19;;;;;;;8.90;5.57;;;;;;;21.92;58.58;96857.47;2074525;28;20194;-65
2022/09/01 10:24:37;;;;;;;8.88;5.80;;;;;;;20.95;59.64;96858.59;2075742;28;20213;-67
2022/09/01 10:25:49;;;;;;;8.90;5.80;;;;;;;20.86;61.84;96864.66;2073575;28;20202;-67
2022/09/01 10:26:55;;;;;;;10.70;5.32;;;;;;;21.16;60.27;96863.06;2073673;28;20205;-65
2022/09/01 10:28:04;;;;;;;10.85;5.65;;;;;;;21.18;60.43;96851.34;2075014;28;20247;-65
2022/09/01 10:45:19;;;;;;;13.52;6.70;;;;;;;20.86;62.01;96851.38;2084552;27;20562;-67
2022/09/01 10:53:40;;;;;;;8.57;5.82;;;;;;;20.42;62.02;96854.06;2070269;28;20213;-65
2022/09/01 10:54:41;;;;;;;10.00;6.53;;;;;;;20.34;62.10;96857.34;2070166;28;20284;-65
2022/09/01 10:56:04;;;;;;;14.70;6.60;;;;;;;20.94;60.38;96848.09;2069837;28;20291;-65
2022/09/01 10:57:39;;;;;;;19.40;6.53;;;;;;;21.22;59.85;96841.31;2069136;28;20580;-65
2022/09/01 11:10:34;;;;;;;34.08;12.60;;;;;;;23.19;55.78;96840.03;2069597;28;20212;-68
2022/09/01 11:11:49;;;;;;;9.93;6.95;;;;;;;23.31;54.99;96829.06;2068907;28;20300;-68
2022/09/01 11:13:07;;;;;;;20.48;6.85;;;;;;;22.06;57.04;96832.34;2061956;28;20587;-69
2022/09/01 11:14:18;;;;;;;10.05;6.45;;;;;;;21.64;58.79;96821.88;2062443;28;20198;-68
2022/09/01 11:15:35;;;;;;;14.73;6.32;;;;;;;21.62;58.78;96835.28;2061835;28;20206;-68
2022/09/01 11:16:42;;;;;;;11.80;6.15;;;;;;;21.94;58.04;96830.75;2061780;28;20496;-68
2022/09/01 11:17:49;;;;;;;9.95;5.40;;;;;;;22.22;57.05;96837.16;2062164;28;20227;-68
2022/09/01 11:18:51;;;;;;;8.95;5.10;;;;;;;23.18;55.36;96836.50;2062005;28;20549;-69
2022/09/01 11:19:54;;;;;;;6.80;4.85;;;;;;;24.28;52.49;96829.66;2061438;28;20203;-68
2022/09/01 11:21:16;;;;;;;9.90;4.90;;;;;;;25.38;49.84;96839.34;2061938;28;20206;-68
2022/09/01 11:22:26;;;;;;;15.25;4.85;;;;;;;25.34;49.03;96829.94;2060988;28;20230;-68
2022/09/01 11:23:30;;;;;;;10.00;6.45;;;;;;;23.27;52.47;96835.69;2061892;28;20206;-68
2022/09/01 11:24:37;;;;;;;11.45;6.22;;;;;;;24.06;51.06;96830.06;2061668;28;20233;-68
2022/09/01 11:25:55;;;;;;;11.13;5.30;;;;;;;23.72;52.66;96827.94;2060881;28;20474;-68
2022/09/01 11:27:47;;;;;;;11.18;5.60;;;;;;;21.95;54.59;96828.00;2060992;28;20250;-68
2022/09/01 11:28:49;;;;;;;10.88;4.35;;;;;;;19.84;60.35;96825.13;2062662;28;20654;-68
2022/09/01 11:29:57;;;;;;;9.10;5.60;;;;;;;19.56;60.57;96820.16;2062521;28;20199;-67
2022/09/01 11:31:10;;;;;;;9.13;4.78;;;;;;;19.61;61.81;96825.13;2061978;28;20556;-68
2022/09/01 11:43:29;;;;;;;26.75;5.88;;;;;;;21.57;58.51;96826.00;2092836;27;20578;-66
2022/09/01 11:44:50;;;;;;;8.20;5.57;;;;;;;22.26;56.38;96817.28;2086276;28;20193;-69
2022/09/01 11:46:19;;;;;;;9.90;5.90;;;;;;;23.52;52.87;96822.69;2087711;28;20204;-69
2022/09/01 11:47:37;;;;;;;10.05;4.93;;;;;;;24.97;50.18;96821.16;2080024;28;20222;-69
2022/09/01 11:48:45;;;;;;;8.32;4.10;;;;;;;22.73;53.66;96823.78;2072706;28;20197;-69
2022/09/01 11:49:59;;;;;;;14.18;4.82;;;;;;;23.40;52.73;96826.50;2060906;28;20194;-69
2022/09/01 11:51:04;;;;;;;6.30;4.03;;;;;;;23.03;53.03;96828.09;2066736;28;20886;-67
2022/09/01 11:52:12;;;;;;;32.88;20.60;;;;;;;23.78;51.79;96822.88;2069816;28;20216;-69
2022/09/01 11:53:21;;;;;;;7.68;3.72;;;;;;;22.61;54.11;96821.28;2069469;28;20194;-69
2022/09/01 11:54:24;;;;;;;9.88;7.05;;;;;;;24.12;49.32;96811.66;2070614;28;20293;-70
2022/09/01 11:55:39;;;;;;;6.32;3.95;;;;;;;22.67;51.60;96814.53;2070518;28;20562;-69
2022/09/01 11:56:41;;;;;;;6.35;3.85;;;;;;;23.43;51.80;96805.75;2070768;28;20201;-69
2022/09/01 11:57:42;;;;;;;9.02;3.58;;;;;;;22.24;53.65;96805.94;2069277;28;20364;-69
2022/09/01 11:58:44;;;;;;;6.05;3.17;;;;;;;22.30;54.00;96816.03;2070838;28;20198;-70
2022/09/01 11:59:45;;;;;;;13.32;3.40;;;;;;;22.73;53.75;96816.66;2070650;28;20202;-69
2022/09/01 12:00:47;;;;;;;10.35;3.55;;;;;;;23.00;52.26;96809.75;2071493;28;20201;-69
2022/09/01 12:01:56;;;;;;;11.13;3.55;;;;;;;23.32;51.93;96816.59;2071835;28;20198;-69
2022/09/01 12:02:58;;;;;;;11.13;3.65;;;;;;;23.19;52.07;96813.41;2071353;28;20479;-66
2022/09/01 12:10:47;;;;;;;6.03;3.28;;;;;;;22.58;52.88;96807.41;2070402;28;20177;-69
2022/09/01 12:11:50;;;;;;;12.00;3.25;;;;;;;23.71;50.70;96797.78;2069578;28;20194;-69
2022/09/01 12:13:09;;;;;;;8.25;3.33;;;;;;;24.90;48.43;96796.91;2069282;28;20194;-69
2022/09/01 12:14:19;;;;;;;5.40;2.67;;;;;;;24.96;48.37;96792.75;2070692;28;20205;-69
2022/09/01 12:22:17;;;;;;;5.40;3.45;;;;;;;24.20;49.23;96786.91;2069890;28;20201;-67
2022/09/01 12:23:46;;;;;;;30.33;4.68;;;;;;;23.55;50.49;96797.59;2070029;28;20896;-67
2022/09/01 12:24:52;;;;;;;9.50;3.50;;;;;;;22.95;51.42;96801.34;2070529;28;20209;-65
2022/09/01 12:25:56;;;;;;;11.25;3.67;;;;;;;21.73;54.85;96801.63;2070501;28;20230;-65
2022/09/01 12:26:59;;;;;;;14.13;4.07;;;;;;;22.11;54.53;96800.88;2060817;28;20210;-66
2022/09/01 12:28:04;;;;;;;19.70;3.97;;;;;;;22.45;54.51;96803.19;2052452;28;20199;-68
2022/09/01 12:29:06;;;;;;;7.88;3.90;;;;;;;21.94;54.73;96805.03;2061937;28;20198;-68
2022/09/01 12:30:09;;;;;;;22.23;4.30;;;;;;;21.98;55.63;96797.63;2061801;28;20705;-68
2022/09/01 12:31:20;;;;;;;9.45;4.68;;;;;;;21.93;55.05;96790.06;2061534;28;20199;-68
2022/09/01 12:32:21;;;;;;;19.92;4.35;;;;;;;22.09;55.70;96794.00;2069834;28;20308;-68
2022/09/01 12:40:19;;;;;;;18.10;5.45;;;;;;;20.65;58.54;96804.44;2069053;28;20225;-68
2022/09/01 12:41:36;;;;;;;8.55;4.63;;;;;;;21.54;57.79;96809.31;2069765;28;20293;-68
2022/09/01 12:42:49;;;;;;;9.48;4.38;;;;;;;22.90;54.80;96804.44;2069405;28;20221;-68
2022/09/01 12:43:51;;;;;;;5.82;4.03;;;;;;;24.18;51.14;96796.88;2070334;28;20563;-68
2022/09/01 12:45:01;;;;;;;114.03;78.15;;;;;;;25.16;49.11;96804.09;2069447;28;20194;-67
2022/09/01 12:46:05;;;;;;;13.20;8.60;;;;;;;25.80;47.54;96803.84;2069603;28;20217;-68
2022/09/01 12:47:30;;;;;;;12.38;7.13;;;;;;;26.01;45.70;96795.38;2069941;28;20288;-68
2022/09/01 12:48:38;;;;;;;5.00;3.03;;;;;;;25.17;46.68;96796.94;2060196;28;20210;-68
2022/09/01 12:49:45;;;;;;;5.15;3.00;;;;;;;25.94;45.74;96798.84;2062792;28;20198;-66
2022/09/01 12:50:52;;;;;;;7.18;3.03;;;;;;;26.84;44.30;96798.25;2070097;28;20206;-66
2022/09/01 12:52:06;;;;;;;6.32;3.67;;;;;;;24.44;47.11;96799.66;2069908;28;20830;-66
2022/09/01 12:53:14;;;;;;;17.05;11.50;;;;;;;25.00;47.27;96791.47;2070206;28;20200;-66
2022/09/01 12:54:24;;;;;;;15.77;3.60;;;;;;;25.20;45.69;96800.09;2066386;28;20202;-65
2022/09/01 12:55:32;;;;;;;10.77;3.17;;;;;;;24.07;46.98;96794.41;2064378;28;20380;-65
2022/09/01 12:56:50;;;;;;;5.80;2.63;;;;;;;23.25;49.48;96778.19;2064228;28;20194;-70
2022/09/01 12:57:54;;;;;;;5.28;2.35;;;;;;;24.53;48.33;96797.91;2064867;28;20202;-66
2022/09/01 12:59:19;;;;;;;12.23;3.22;;;;;;;24.70;48.43;96788.22;2064971;28;20202;-66
2022/09/01 13:00:58;;;;;;;6.13;3.20;;;;;;;26.49;44.56;96790.34;2054862;28;20798;-66
2022/09/01 13:02:26;;;;;;;10.68;2.78;;;;;;;24.70;47.22;96785.56;2052654;28;20307;-66
2022/09/01 13:10:04;;;;;;;6.35;3.00;;;;;;;22.89;50.69;96778.78;2064570;28;20672;-67
2022/09/01 13:11:11;;;;;;;4.45;3.03;;;;;;;22.70;51.39;96770.84;2055228;28;20203;-67
2022/09/01 13:12:20;;;;;;;6.18;2.97;;;;;;;23.51;50.56;96791.69;2056215;28;20286;-66
2022/09/01 13:13:24;;;;;;;8.82;3.05;;;;;;;23.96;50.54;96785.63;2064368;28;20552;-67
2022/09/01 13:14:26;;;;;;;4.00;2.80;;;;;;;24.08;50.43;96788.09;2064395;28;20203;-67
2022/09/01 13:27:01;;;;;;;8.30;3.38;;;;;;;22.43;53.89;96775.06;2064474;28;20174;-70
2022/09/01 13:28:24;;;;;;;13.13;3.28;;;;;;;22.77;53.68;96769.31;2058872;28;20326;-68
2022/09/01 13:29:30;;;;;;;4.13;3.03;;;;;;;22.99;53.09;96771.66;2060577;28;20202;-68
2022/09/01 13:30:36;;;;;;;5.15;2.92;;;;;;;22.74;52.56;96753.59;2068267;28;20241;-69
2022/09/01 13:31:38;;;;;;;5.32;3.10;;;;;;;23.27;52.28;96769.09;2058832;28;20484;-64
2022/09/01 13:33:00;;;;;;;6.38;3.50;;;;;;;24.44;49.84;96727.59;2060611;28;20572;-64
2022/09/01 13:34:23;;;;;;;9.98;3.50;;;;;;;25.79;46.28;96780.75;2066678;28;20198;-65
2022/09/01 13:35:25;;;;;;;8.05;3.08;;;;;;;26.45;45.17;96769.41;2056377;28;20285;-65
2022/09/01 13:36:27;;;;;;;9.13;3.13;;;;;;;26.49;43.77;96768.09;2056339;28;20207;-64
2022/09/01 13:37:49;;;;;;;10.70;3.20;;;;;;;26.69;43.23;96766.75;2063499;28;20226;-63
2022/09/01 13:38:50;;;;;;;5.22;2.92;;;;;;;26.88;42.90;96762.09;2064872;28;20198;-63
2022/09/01 13:39:56;;;;;;;7.72;2.58;;;;;;;27.42;42.12;96755.34;2063668;28;20256;-63
2022/09/01 13:41:00;;;;;;;4.55;3.00;;;;;;;25.26;45.62;96758.59;2064506;28;20198;-62
2022/09/01 13:42:01;;;;;;;27.45;3.10;;;;;;;23.63;49.31;96755.88;2063959;28;20700;-62
2022/09/01 13:43:03;;;;;;;12.18;2.85;;;;;;;24.23;48.77;96759.91;2064420;28;20238;-62
2022/09/01 13:44:05;;;;;;;6.95;2.95;;;;;;;22.84;51.13;96765.06;2064347;28;20203;-62
2022/09/01 13:45:07;;;;;;;31.40;3.25;;;;;;;23.30;50.18;96765.28;2062786;28;20876;-62
2022/09/01 13:46:08;;;;;;;9.50;4.40;;;;;;;23.79;49.59;96749.94;2064485;28;20229;-61
2022/09/01 13:47:10;;;;;;;26.23;4.70;;;;;;;22.99;50.91;96758.34;2071043;28;20288;-62
2022/09/01 13:48:34;;;;;;;25.83;4.13;;;;;;;22.71;51.36;96753.91;2069124;28;20205;-62
2022/09/01 13:49:56;;;;;;;18.70;2.95;;;;;;;24.52;48.27;96748.19;2063914;28;20695;-62
2022/09/01 13:57:57;;;;;;;4.70;3.40;;;;;;;23.21;51.15;96761.66;2062356;28;20657;-61
2022/09/01 13:58:59;;;;;;;6.30;3.00;;;;;;;23.20;51.99;96762.66;2064400;28;20199;-61
2022/09/01 14:00:01;;;;;;;4.72;2.80;;;;;;;23.21;51.80;96758.16;2064520;28;20209;-61
2022/09/01 14:01:03;;;;;;;5.45;2.50;;;;;;;23.39;51.34;96763.56;2064622;28;20674;-61
2022/09/01 14:02:05;;;;;;;5.13;3.30;;;;;;;22.71;52.74;96765.38;2064018;28;20198;-61
2022/09/01 14:03:11;;;;;;;4.95;4.03;;;;;;;22.77;52.31;96766.63;2064661;28;20594;-61
2022/09/01 14:04:13;;;;;;;4.38;2.90;;;;;;;23.37;51.72;96755.72;2063673;28;20214;-61
2022/09/01 14:05:27;;;;;;;10.32;3.53;;;;;;;22.42;52.50;96760.88;2062644;28;20286;-61
2022/09/01 14:06:28;;;;;;;3.95;3.10;;;;;;;21.94;53.78;96757.19;2063972;28;20285;-61
2022/09/01 14:07:31;;;;;;;5.95;3.33;;;;;;;21.57;55.29;96763.09;2063831;28;20673;-60
2022/09/01 14:08:32;;;;;;;4.05;3.22;;;;;;;22.39;53.29;96753.19;2064169;28;20194;-61
2022/09/01 14:09:34;;;;;;;6.15;3.15;;;;;;;22.40;52.49;96756.69;2063337;28;20198;-61
2022/09/01 14:10:44;;;;;;;5.78;2.97;;;;;;;22.47;52.28;96757.81;2064360;28;21038;-61
2022/09/01 14:11:45;;;;;;;9.10;3.38;;;;;;;22.77;52.54;96748.84;2064461;28;20198;-62
2022/09/01 14:12:47;;;;;;;4.70;2.70;;;;;;;21.88;53.27;96757.75;2064215;28;20234;-61
2022/09/01 14:13:49;;;;;;;5.47;3.28;;;;;;;22.11;53.13;96742.38;2063264;28;20849;-61
2022/09/01 14:14:50;;;;;;;6.43;2.90;;;;;;;22.45;52.31;96757.13;2064320;28;20677;-62
2022/09/01 14:16:13;;;;;;;5.60;3.33;;;;;;;22.33;53.18;96757.25;2064115;28;20202;-64
2022/09/01 14:17:15;;;;;;;6.60;2.92;;;;;;;22.84;51.13;96759.75;2064061;28;20223;-64
2022/09/01 14:18:17;;;;;;;5.38;2.78;;;;;;;22.67;51.70;96745.34;2064455;28;20202;-64
2022/09/01 14:19:19;;;;;;;5.65;3.25;;;;;;;23.47;50.07;96761.00;2064254;28;20220;-66
2022/09/01 14:20:24;;;;;;;6.30;3.53;;;;;;;24.06;48.40;96752.72;2064461;28;20202;-64
2022/09/01 14:57:39;;;;;;;3.58;2.65;;;;;;;23.89;47.12;96723.19;2063083;28;20218;-63
2022/09/01 14:58:44;;;;;;;3.40;2.60;;;;;;;24.88;45.86;96713.44;2062283;28;20202;-64
2022/09/01 14:59:45;;;;;;;3.80;2.28;;;;;;;24.38;45.70;96714.88;2063349;28;20206;-64
2022/09/01 15:00:55;;;;;;;3.78;2.10;;;;;;;24.17;46.96;96715.16;2063328;28;20206;-63
2022/09/01 15:02:08;;;;;;;3.13;2.35;;;;;;;25.14;45.64;96711.75;2063362;28;20602;-63
2022/09/01 15:09:57;;;;;;;3.05;2.45;;;;;;;24.99;45.06;96698.13;2063303;28;20794;-64
2022/09/01 15:11:00;;;;;;;4.15;2.05;;;;;;;24.94;45.26;96710.13;2062325;28;20239;-63
2022/09/01 15:12:01;;;;;;;6.35;2.15;;;;;;;24.93;45.39;96691.59;2063572;28;20198;-63
2022/09/01 15:13:03;;;;;;;2.80;2.13;;;;;;;24.97;44.87;96711.66;2063546;28;20202;-63
2022/09/01 15:14:04;;;;;;;5.28;2.40;;;;;;;24.73;45.12;96715.00;2064008;28;20190;-64
2022/09/01 15:15:09;;;;;;;8.60;1.85;;;;;;;25.06;45.22;96702.69;2063185;28;20202;-64
2022/09/01 15:16:17;;;;;;;6.70;2.45;;;;;;;26.21;43.60;96710.34;2063830;28;20206;-63
2022/09/01 15:17:18;;;;;;;5.63;2.85;;;;;;;25.58;44.17;96709.84;2063011;28;20250;-62
2022/09/01 15:18:20;;;;;;;10.43;2.30;;;;;;;26.26;43.31;96709.00;2063801;28;20201;-63
2022/09/01 15:19:23;;;;;;;5.35;2.20;;;;;;;26.77;42.08;96712.38;2064011;28;20203;-59
2022/09/01 15:20:44;;;;;;;4.70;2.33;;;;;;;27.19;41.76;96711.28;2063822;28;20344;-60
2022/09/01 15:21:46;;;;;;;2.75;2.17;;;;;;;26.54;41.83;96696.16;2063130;28;20201;-60
2022/09/01 15:22:48;;;;;;;10.07;1.95;;;;;;;26.11;43.25;96706.16;2060980;28;20253;-60
2022/09/01 15:23:50;;;;;;;6.10;2.15;;;;;;;26.00;43.72;96705.41;2063664;28;20202;-60
2022/09/01 15:24:52;;;;;;;6.47;2.78;;;;;;;25.48;43.57;96703.75;2065475;28;20198;-65
2022/09/01 15:25:54;;;;;;;10.40;1.98;;;;;;;25.31;43.79;96710.03;2063582;28;20198;-65
2022/09/01 15:26:56;;;;;;;2.75;1.98;;;;;;;25.05;44.94;96702.84;2062411;28;20214;-65
2022/09/01 15:27:57;;;;;;;3.28;1.90;;;;;;;25.31;44.33;96712.69;2063762;28;20207;-65
2022/09/01 15:29:00;;;;;;;2.20;1.70;;;;;;;25.18;44.58;96710.44;2063940;28;20400;-65
2022/09/01 15:30:10;;;;;;;4.55;1.80;;;;;;;25.10;44.74;96709.41;2063799;28;20216;-65
2022/09/01 15:31:14;;;;;;;5.63;2.00;;;;;;;24.85;44.86;96703.06;2063201;28;20202;-64
2022/09/01 15:32:16;;;;;;;3.67;2.10;;;;;;;24.74;47.76;96708.66;2063263;28;20226;-64
2022/09/01 15:33:28;;;;;;;2.85;1.85;;;;;;;24.48;47.02;96688.09;2062111;28;20676;-64
2022/09/01 15:34:29;;;;;;;2.28;1.60;;;;;;;24.50;46.40;96699.44;2063850;28;20713;-64
2022/09/01 15:35:35;;;;;;;3.28;2.33;;;;;;;24.28;47.76;96700.78;2062960;28;20242;-64
2022/09/01 15:36:38;;;;;;;5.50;2.42;;;;;;;24.51;46.91;96706.47;2063211;28;20194;-64
2022/09/01 15:37:40;;;;;;;8.55;6.68;;;;;;;24.58;45.34;96699.53;2062396;28;20225;-64
2022/09/01 15:38:42;;;;;;;11.80;8.93;;;;;;;24.32;46.15;96694.13;2063708;28;20218;-65
2022/09/01 15:45:04;;;;;;;5.43;2.40;;;;;;;22.16;50.70;96705.56;2063047;28;20657;-65
2022/09/01 15:46:06;;;;;;;4.88;2.22;;;;;;;21.72;51.88;96696.31;2062829;28;20226;-63
2022/09/01 15:47:07;;;;;;;3.28;2.10;;;;;;;21.46;53.12;96686.16;2063098;28;20779;-63
2022/09/01 15:48:09;;;;;;;7.93;2.60;;;;;;;21.15;54.69;96689.69;2064185;28;20202;-61
2022/09/01 15:49:10;;;;;;;3.20;2.15;;;;;;;21.45;53.92;96692.44;2063581;28;20201;-61
2022/09/01 15:50:14;;;;;;;6.03;2.83;;;;;;;21.28;54.30;96692.09;2063785;28;20556;-61
2022/09/01 15:58:04;;;;;;;6.55;2.90;;;;;;;22.93;50.34;96691.50;2062043;28;20720;-61
2022/09/01 15:59:06;;;;;;;4.03;2.58;;;;;;;22.73;50.48;96677.41;2063615;28;20206;-61
2022/09/01 16:00:10;;;;;;;3.50;2.55;;;;;;;22.70;50.15;96683.00;2063547;28;20198;-61
2022/09/01 16:01:12;;;;;;;5.75;2.60;;;;;;;22.16;51.89;96688.78;2062797;28;20423;-61
2022/09/01 16:02:16;;;;;;;4.15;2.78;;;;;;;21.75;51.51;96691.56;2063105;28;20588;-62
2022/09/01 16:03:18;;;;;;;4.22;2.47;;;;;;;21.98;52.27;96678.03;2062569;28;20210;-61
2022/09/01 16:04:19;;;;;;;3.88;2.47;;;;;;;22.23;50.57;96689.06;2063629;28;20213;-61
2022/09/01 16:05:34;;;;;;;8.18;2.60;;;;;;;22.12;50.94;96685.56;2062839;28;20330;-61
2022/09/01 16:06:38;;;;;;;3.22;2.30;;;;;;;22.49;49.76;96681.38;2062623;28;20201;-60
2022/09/01 16:07:40;;;;;;;6.70;2.22;;;;;;;22.16;50.57;96681.63;2061885;28;20221;-62
2022/09/01 16:08:45;;;;;;;3.10;2.05;;;;;;;21.92;51.17;96690.03;2063557;28;20198;-61
2022/09/01 16:09:46;;;;;;;6.03;2.22;;;;;;;22.65;50.25;96678.97;2062895;28;20877;-62
2022/09/01 16:10:48;;;;;;;7.40;2.85;;;;;;;22.39;49.83;96691.19;2063643;28;20272;-61
2022/09/01 16:11:52;;;;;;;2.60;1.80;;;;;;;22.39;49.60;96689.38;2062891;28;20542;-61
2022/09/01 16:12:54;;;;;;;3.20;2.25;;;;;;;22.03;49.95;96681.09;2063546;28;20217;-61
2022/09/01 16:13:57;;;;;;;4.15;2.10;;;;;;;21.71;50.21;96684.00;2063739;28;20203;-61
2022/09/01 16:14:58;;;;;;;2.47;1.90;;;;;;;22.26;49.68;96673.66;2063660;28;20194;-61
2022/09/01 16:16:18;;;;;;;2.80;2.05;;;;;;;22.27;49.65;96678.00;2063441;28;20198;-61
2022/09/01 16:17:38;;;;;;;3.42;2.10;;;;;;;22.14;49.79;96672.13;2062938;28;20228;-61
2022/09/01 16:18:45;;;;;;;3.75;2.10;;;;;;;21.97;49.50;96679.00;2063651;28;20557;-61
2022/09/01 16:20:02;;;;;;;4.10;1.75;;;;;;;22.04;49.42;96660.66;2064224;28;20206;-61
2022/09/01 16:21:33;;;;;;;3.72;1.60;;;;;;;22.46;48.83;96671.00;2063155;28;20206;-61
2022/09/01 16:22:43;;;;;;;3.35;1.92;;;;;;;22.10;48.95;96660.94;2062573;28;20218;-61
2022/09/01 16:23:50;;;;;;;5.10;2.03;;;;;;;22.15;50.15;96673.81;2062105;28;20721;-61
2022/09/01 16:24:56;;;;;;;3.42;2.00;;;;;;;21.93;50.05;96672.25;2063573;28;20695;-61
2022/09/01 16:25:59;;;;;;;3.15;2.13;;;;;;;22.69;48.99;96668.88;2063288;28;20360;-63
2022/09/01 16:27:01;;;;;;;4.47;2.10;;;;;;;23.19;48.46;96673.06;2062736;28;20557;-63
2022/09/01 16:28:27;;;;;;;11.85;2.08;;;;;;;23.57;47.25;96665.88;2063631;28;20199;-63
2022/09/01 16:29:40;;;;;;;4.03;2.10;;;;;;;23.03;46.93;96664.84;2063947;28;20203;-63
2022/09/01 16:30:49;;;;;;;3.72;1.90;;;;;;;22.63;48.66;96658.81;2064903;28;20560;-63
2022/09/01 16:31:54;;;;;;;3.55;2.22;;;;;;;22.52;48.20;96648.34;2062834;28;20213;-63
2022/09/01 16:33:00;;;;;;;3.67;2.30;;;;;;;22.53;48.53;96671.31;2065132;28;20205;-63
2022/09/01 16:34:12;;;;;;;2.60;1.73;;;;;;;22.27;49.17;96666.53;2065248;28;20561;-63
2022/09/01 16:35:17;;;;;;;4.13;2.03;;;;;;;22.23;49.50;96670.44;2063739;28;20281;-65
2022/09/01 16:36:25;;;;;;;2.85;1.85;;;;;;;22.22;49.60;96672.28;2065431;28;20862;-64
2022/09/01 16:37:44;;;;;;;4.88;2.22;;;;;;;22.45;49.06;96674.69;2063669;28;20261;-64
2022/09/01 16:38:53;;;;;;;3.95;2.05;;;;;;;22.07;49.27;96669.19;2062167;28;20198;-65
2022/09/01 17:25:39;;;;;;;4.90;2.92;;;;;;;19.75;56.18;96662.44;2082984;28;20561;-63
2022/09/01 17:26:49;;;;;;;8.00;3.22;;;;;;;19.68;56.66;96656.81;2075409;28;20196;-64
2022/09/01 17:27:58;;;;;;;7.15;3.35;;;;;;;19.61;56.77;96652.13;2053483;28;20586;-65
2022/09/01 17:29:15;;;;;;;3.60;2.65;;;;;;;19.78;56.65;96671.94;2053859;28;20206;-65
2022/09/01 17:30:17;;;;;;;5.13;3.20;;;;;;;19.86;56.64;96658.94;2054325;28;20206;-64
